Time;durP1;ratioP1;P1;durP2;ratioP2;P2;SDS_P1;SDS_P2;PMS_P1;PMS_P2;Temp;Humidity;BMP_temperature;BMP_pressure;BME280_temperature;BME280_humidity;BME280_pressure;Samples;Min_cycle;Max_cycle;Signal;HPM_P1;HPM_P2
2021/08/22 00:00:12;;;;;;;;;;;16.50;99.90;;;16.36;100.00;101033.97;5072652;28;19924;-56
2021/08/22 00:02:40;;;;;;;;;;;16.60;99.90;;;16.38;100.00;101028.97;5072661;28;19931;-56
2021/08/22 00:05:08;;;;;;;;;;;16.50;99.90;;;16.35;100.00;101032.34;5072627;28;20019;-55
2021/08/22 00:07:36;;;;;;;;;;;16.50;99.90;;;16.29;100.00;101025.47;5071900;28;19928;-56
2021/08/22 00:10:06;;;;;;;;;;;16.50;99.90;;;16.30;100.00;101029.81;5072360;28;19924;-55
2021/08/22 00:12:34;;;;;;;;;;;16.50;99.90;;;16.34;100.00;101028.03;5072397;28;19936;-57
2021/08/22 00:15:02;;;;;;;;;;;16.50;99.90;;;16.43;100.00;101028.03;5072479;28;19955;-56
2021/08/22 00:17:29;;;;;;;;;;;;;;;16.48;100.00;101019.66;5071831;28;19924;-56
2021/08/22 00:19:57;;;;;;;;;;;16.60;99.90;;;16.53;100.00;101015.97;5072177;28;19931;-56
2021/08/22 00:22:25;;;;;;;;;;;16.60;99.90;;;16.49;100.00;101015.00;5072667;28;19950;-56
2021/08/22 00:24:53;;;;;;;;;;;16.50;99.90;;;16.24;100.00;101003.81;5072136;28;19929;-56
2021/08/22 00:27:22;;;;;;;;;;;16.40;99.90;;;16.07;100.00;101014.75;5071710;28;19989;-56
2021/08/22 00:29:50;;;;;;;;;;;;;;;15.89;100.00;101004.97;5072089;28;19924;-56
2021/08/22 00:32:17;;;;;;;;;;;16.10;99.90;;;15.81;100.00;101008.47;5072514;28;19928;-56
2021/08/22 00:34:45;;;;;;;;;;;16.00;99.90;;;15.87;100.00;101007.19;5071376;28;19924;-56
2021/08/22 00:37:13;;;;;;;;;;;16.00;99.90;;;16.07;100.00;101006.56;5071529;28;19932;-56
2021/08/22 00:39:41;;;;;;;;;;;16.20;99.90;;;16.07;100.00;101006.56;5071788;28;19932;-56
2021/08/22 00:42:09;;;;;;;;;;;16.20;99.90;;;15.99;100.00;101004.63;5072313;28;19928;-56
2021/08/22 00:44:38;;;;;;;;;;;16.10;99.90;;;15.91;100.00;101004.63;5072066;28;19924;-56
2021/08/22 00:47:06;;;;;;;;;;;16.10;99.90;;;15.79;100.00;101003.34;5071572;28;19931;-56
2021/08/22 00:49:34;;;;;;;;;;;16.00;99.90;;;15.79;100.00;101008.78;5071890;28;19928;-56
2021/08/22 00:52:01;;;;;;;;;;;15.90;99.90;;;15.65;100.00;101005.44;5072172;28;19929;-56
2021/08/22 00:54:29;;;;;;;;;;;;;;;15.54;100.00;101008.75;5072076;28;19930;-56
2021/08/22 00:56:57;;;;;;;;;;;15.70;99.90;;;15.45;100.00;101005.97;5071340;28;19924;-56
2021/08/22 00:59:25;;;;;;;;;;;15.70;99.90;;;15.49;100.00;101006.19;5071808;28;19936;-56
2021/08/22 01:01:55;;;;;;;;;;;15.70;99.90;;;15.44;100.00;100998.91;5072143;28;19925;-56
2021/08/22 01:04:26;;;;;;;;;;;15.60;99.90;;;15.56;100.00;101004.59;5071828;28;20367;-56
2021/08/22 01:07:00;;;;;;;;;;;15.70;99.90;;;15.52;100.00;100990.00;5070999;28;19931;-56
2021/08/22 01:09:32;;;;;;;;;;;15.70;99.90;;;15.53;100.00;100983.44;5071722;28;19963;-56
2021/08/22 01:12:03;;;;;;;;;;;15.70;99.90;;;15.51;100.00;100985.66;5072090;28;19932;-56
2021/08/22 01:14:36;;;;;;;;;;;15.80;99.90;;;15.57;100.00;100983.59;5071988;28;19929;-56
2021/08/22 01:17:05;;;;;;;;;;;15.80;99.90;;;15.56;100.00;100980.06;5071251;28;20276;-56
2021/08/22 01:19:43;;;;;;;;;;;15.80;99.90;;;15.61;100.00;100977.19;5071506;28;19936;-56
2021/08/22 01:22:11;;;;;;;;;;;15.80;99.90;;;15.58;100.00;100968.84;5072168;28;20276;-56
2021/08/22 01:24:41;;;;;;;;;;;15.70;99.90;;;15.51;100.00;100972.03;5071843;28;20367;-56
2021/08/22 01:27:09;;;;;;;;;;;;;;;15.40;100.00;100976.16;5071081;28;19924;-57
2021/08/22 01:29:40;;;;;;;;;;;15.70;99.90;;;15.31;100.00;100964.44;5071636;28;19928;-56
2021/08/22 01:32:09;;;;;;;;;;;15.70;99.90;;;15.16;100.00;100956.72;5071988;28;19925;-57
2021/08/22 01:34:39;;;;;;;;;;;15.60;99.90;;;15.13;100.00;100958.16;5071878;28;19925;-57
2021/08/22 01:37:07;;;;;;;;;;;15.70;99.90;;;15.61;100.00;100954.56;5070815;28;19935;-56
2021/08/22 01:39:36;;;;;;;;;;;15.70;99.90;;;15.57;100.00;100942.69;5071473;28;19931;-56
2021/08/22 01:42:06;;;;;;;;;;;15.60;99.90;;;15.53;100.00;100945.28;5071915;28;19925;-56
2021/08/22 01:44:34;;;;;;;;;;;15.60;99.90;;;15.42;100.00;100934.97;5071473;28;19952;-56
2021/08/22 01:47:05;;;;;;;;;;;15.60;99.90;;;15.36;100.00;100945.22;5074383;28;19931;-56
2021/08/22 01:49:32;;;;;;;;;;;;;;;15.24;100.00;100947.75;5075101;28;20001;-56
2021/08/22 01:52:02;;;;;;;;;;;;;;;15.03;100.00;100944.84;5075332;28;19931;-56
2021/08/22 01:54:29;;;;;;;;;;;;;;;14.95;100.00;100942.09;5075191;28;20310;-56
2021/08/22 01:56:57;;;;;;;;;;;;;;;15.00;100.00;100941.94;5074182;28;19946;-56
2021/08/22 01:59:25;;;;;;;;;;;;;;;15.15;100.00;100941.50;5074817;28;19951;-56
2021/08/22 02:01:53;;;;;;;;;;;;;;;15.22;100.00;100937.19;5075016;28;19928;-56
2021/08/22 02:04:22;;;;;;;;;;;;;;;15.37;100.00;100944.09;5075015;28;19932;-56
2021/08/22 02:06:51;;;;;;;;;;;;;;;15.37;100.00;100933.22;5073856;28;19932;-56
2021/08/22 02:09:21;;;;;;;;;;;;;;;15.31;100.00;100929.03;5074521;28;19928;-56
2021/08/22 02:11:49;;;;;;;;;;;;;;;15.37;100.00;100938.66;5074657;28;19928;-57
2021/08/22 02:14:17;;;;;;;;;;;;;;;15.46;100.00;100938.66;5074897;28;20367;-56
2021/08/22 02:16:46;;;;;;;;;;;;;;;15.53;100.00;100939.84;5074135;28;20308;-57
2021/08/22 02:19:14;;;;;;;;;;;;;;;15.53;100.00;100937.09;5074727;28;19924;-56
2021/08/22 02:21:42;;;;;;;;;;;;;;;15.62;100.00;100929.75;5074826;28;20253;-56
2021/08/22 02:24:10;;;;;;;;;;;;;;;15.53;100.00;100926.22;5074671;28;19920;-56
2021/08/22 02:26:40;;;;;;;;;;;;;;;15.51;100.00;100931.16;5073925;28;19932;-56
2021/08/22 02:29:07;;;;;;;;;;;;;;;15.55;100.00;100934.06;5074125;28;19928;-56
2021/08/22 02:31:35;;;;;;;;;;;;;;;15.60;100.00;100925.69;5074603;28;19930;-56
2021/08/22 02:34:03;;;;;;;;;;;;;;;15.61;100.00;100927.31;5074288;28;19928;-57
2021/08/22 02:36:31;;;;;;;;;;;;;;;15.62;100.00;100932.47;5073757;28;19940;-57
2021/08/22 02:38:59;;;;;;;;;;;;;;;15.63;100.00;100925.06;5073769;28;19935;-56
2021/08/22 02:41:26;;;;;;;;;;;;;;;15.61;100.00;100925.41;5074457;28;19939;-56
2021/08/22 02:43:56;;;;;;;;;;;;;;;15.65;100.00;100929.09;5074191;28;19924;-56
2021/08/22 02:46:24;;;;;;;;;;;;;;;15.68;100.00;100924.91;5073825;28;20395;-56
2021/08/22 02:48:52;;;;;;;;;;;;;;;15.59;100.00;100940.47;5073552;28;19928;-56
2021/08/22 02:51:19;;;;;;;;;;;;;;;15.63;100.00;100931.31;5074151;28;19931;-56
2021/08/22 02:53:47;;;;;;;;;;;;;;;15.68;100.00;100923.00;5074072;28;20361;-56
2021/08/22 02:56:15;;;;;;;;;;;;;;;15.72;100.00;100917.69;5073212;28;19928;-56
2021/08/22 02:58:43;;;;;;;;;;;;;;;15.74;100.00;100926.38;5072812;28;19924;-56
2021/08/22 03:01:12;;;;;;;;;;;;;;;15.70;100.00;100920.75;5073818;28;19928;-56
2021/08/22 03:03:40;;;;;;;;;;;;;;;15.62;100.00;100913.38;5073877;28;20011;-56
2021/08/22 03:06:08;;;;;;;;;;;;;;;15.48;100.00;100904.53;5073190;28;19956;-56
2021/08/22 03:08:36;;;;;;;;;;;;;;;15.29;100.00;100899.38;5073149;28;19929;-56
2021/08/22 03:11:03;;;;;;;;;;;;;;;15.30;100.00;100894.72;5073696;28;19931;-57
2021/08/22 03:13:31;;;;;;;;;;;;;;;15.31;100.00;100902.59;5073820;28;19931;-57
2021/08/22 03:15:59;;;;;;;;;;;;;;;15.29;100.00;100893.09;5073091;28;20379;-56
2021/08/22 03:18:29;;;;;;;;;;;;;;;15.31;100.00;100899.88;5072917;28;19940;-57
2021/08/22 03:20:56;;;;;;;;;;;;;;;15.27;100.00;100903.53;5073497;28;19928;-56
2021/08/22 03:23:24;;;;;;;;;;;;;;;15.11;100.00;100908.63;5073302;28;19924;-56
2021/08/22 03:25:52;;;;;;;;;;;15.30;99.90;;;14.86;100.00;100906.66;5072928;28;20375;-56
2021/08/22 03:28:20;;;;;;;;;;;;;;;14.85;100.00;100910.50;5072578;28;19924;-56
2021/08/22 03:30:51;;;;;;;;;;;;;;;15.18;100.00;100919.88;5073427;28;19928;-56
2021/08/22 03:33:19;;;;;;;;;;;15.60;99.90;;;15.44;100.00;100921.84;5073190;28;19928;-56
2021/08/22 03:35:48;;;;;;;;;;;15.70;99.90;;;15.59;100.00;100921.41;5072877;28;19932;-56
2021/08/22 03:38:16;;;;;;;;;;;15.80;99.90;;;15.87;100.00;100922.66;5072378;28;19935;-57
2021/08/22 03:40:44;;;;;;;;;;;16.10;99.90;;;15.99;100.00;100917.34;5073459;28;19932;-56
2021/08/22 03:43:12;;;;;;;;;;;16.30;99.90;;;16.10;100.00;100915.88;5072740;28;19928;-56
2021/08/22 03:45:39;;;;;;;;;;;16.40;99.90;;;16.23;100.00;100914.88;5072617;28;19924;-55
2021/08/22 03:48:07;;;;;;;;;;;16.50;99.90;;;16.17;100.00;100909.94;5072215;28;19932;-57
2021/08/22 03:50:35;;;;;;;;;;;16.50;99.90;;;16.11;100.00;100914.75;5073161;28;20371;-56
2021/08/22 03:53:05;;;;;;;;;;;16.40;99.90;;;16.03;100.00;100918.31;5072797;28;19929;-57
2021/08/22 03:55:33;;;;;;;;;;;16.40;99.90;;;15.96;100.00;100923.44;5072420;28;20371;-57
2021/08/22 03:58:00;;;;;;;;;;;16.30;99.90;;;15.87;100.00;100917.19;5072050;28;20288;-56
2021/08/22 04:00:28;;;;;;;;;;;16.20;99.90;;;15.86;100.00;100915.59;5072789;28;19924;-57
2021/08/22 04:02:56;;;;;;;;;;;16.20;99.90;;;15.87;100.00;100910.97;5072711;28;19936;-57
2021/08/22 04:05:24;;;;;;;;;;;16.20;99.90;;;15.91;100.00;100909.16;5072332;28;20299;-56
2021/08/22 04:07:54;;;;;;;;;;;16.20;99.90;;;15.96;100.00;100906.28;5071703;28;19924;-56
2021/08/22 04:10:25;;;;;;;;;;;16.20;99.90;;;16.05;100.00;100907.84;5072610;28;19925;-56
2021/08/22 04:12:53;;;;;;;;;;;16.30;99.90;;;16.05;100.00;100896.19;5072635;28;19924;-56
2021/08/22 04:15:21;;;;;;;;;;;16.30;99.90;;;16.07;100.00;100897.44;5072320;28;19987;-56
2021/08/22 04:17:49;;;;;;;;;;;16.30;99.90;;;16.05;100.00;100894.22;5071715;28;20323;-56
2021/08/22 04:20:16;;;;;;;;;;;16.30;99.90;;;16.13;100.00;100898.88;5072653;28;19928;-56
2021/08/22 04:22:44;;;;;;;;;;;16.30;99.90;;;16.20;100.00;100896.44;5072556;28;19950;-56
2021/08/22 04:25:13;;;;;;;;;;;16.40;99.90;;;16.06;100.00;100900.47;5072383;28;19928;-56
2021/08/22 04:27:43;;;;;;;;;;;16.30;99.90;;;15.92;100.00;100895.22;5071607;28;19970;-56
2021/08/22 04:30:12;;;;;;;;;;;16.20;99.90;;;15.79;100.00;100896.19;5072324;28;19928;-56
2021/08/22 04:32:40;;;;;;;;;;;16.10;99.90;;;15.79;100.00;100886.09;5072392;28;19925;-56
2021/08/22 04:35:09;;;;;;;;;;;16.00;99.90;;;15.81;100.00;100883.03;5072379;28;19928;-56
2021/08/22 04:37:37;;;;;;;;;;;16.00;99.90;;;15.82;100.00;100884.66;5071420;28;19929;-56
2021/08/22 04:40:05;;;;;;;;;;;16.00;99.90;;;15.76;100.00;100885.94;5072569;28;19964;-56
2021/08/22 04:42:33;;;;;;;;;;;16.00;99.90;;;15.64;100.00;100888.50;5072556;28;19928;-56
2021/08/22 04:45:03;;;;;;;;;;;15.90;99.90;;;15.59;100.00;100880.50;5072204;28;19936;-56
2021/08/22 04:47:31;;;;;;;;;;;15.90;99.90;;;15.53;100.00;100881.78;5071403;28;19947;-56
2021/08/22 04:49:58;;;;;;;;;;;15.80;99.90;;;15.58;100.00;100889.81;5072013;28;19967;-56
2021/08/22 04:52:26;;;;;;;;;;;15.80;99.90;;;15.62;100.00;100886.13;5072382;28;19924;-56
2021/08/22 04:54:54;;;;;;;;;;;15.80;99.90;;;15.64;100.00;100881.13;5074958;28;20384;-56
2021/08/22 04:57:22;;;;;;;;;;;15.80;99.90;;;15.65;100.00;100879.22;5071427;28;19929;-56
2021/08/22 04:59:49;;;;;;;;;;;15.80;99.90;;;15.65;100.00;100880.03;5071762;28;19950;-57
2021/08/22 05:02:19;;;;;;;;;;;15.90;99.90;;;15.67;100.00;100876.97;5072233;28;19928;-55
2021/08/22 05:04:46;;;;;;;;;;;15.80;99.90;;;15.64;100.00;100872.16;5071834;28;19924;-56
2021/08/22 05:07:14;;;;;;;;;;;15.80;99.90;;;15.64;100.00;100872.16;5071099;28;20002;-56
2021/08/22 05:09:42;;;;;;;;;;;15.80;99.90;;;15.64;100.00;100866.72;5071958;28;19925;-56
2021/08/22 05:12:10;;;;;;;;;;;15.80;99.90;;;15.62;100.00;100864.31;5072103;28;20452;-56
2021/08/22 05:14:37;;;;;;;;;;;15.80;99.90;;;15.66;100.00;100854.34;5071830;28;19931;-56
2021/08/22 05:17:05;;;;;;;;;;;15.80;99.90;;;15.69;100.00;100852.91;5070454;28;20053;-57
2021/08/22 05:19:36;;;;;;;;;;;15.80;99.90;;;15.62;100.00;100858.06;5071872;28;20347;-56
2021/08/22 05:22:04;;;;;;;;;;;15.80;99.90;;;15.54;100.00;100853.41;5075902;28;19932;-56
2021/08/22 05:24:32;;;;;;;;;;;15.70;99.90;;;15.46;100.00;100855.00;5075684;28;19974;-55
2021/08/22 05:27:00;;;;;;;;;;;15.70;99.90;;;15.38;100.00;100858.50;5074617;28;19935;-57
2021/08/22 05:29:27;;;;;;;;;;;15.60;99.90;;;15.35;100.00;100861.88;5075403;28;19924;-55
2021/08/22 05:31:55;;;;;;;;;;;15.60;99.90;;;15.31;100.00;100856.28;5075491;28;19931;-56
2021/08/22 05:34:23;;;;;;;;;;;15.50;99.90;;;15.27;100.00;100863.47;5075375;28;19978;-56
2021/08/22 05:36:52;;;;;;;;;;;15.50;99.90;;;15.25;100.00;100856.75;5074540;28;19924;-57
2021/08/22 05:39:21;;;;;;;;;;;15.40;99.90;;;15.21;100.00;100851.13;5075202;28;19971;-56
2021/08/22 05:41:48;;;;;;;;;;;15.40;99.90;;;15.17;100.00;100847.44;5075658;28;19982;-56
2021/08/22 05:44:16;;;;;;;;;;;15.30;99.90;;;15.19;100.00;100858.84;5075279;28;19927;-56
2021/08/22 05:46:44;;;;;;;;;;;15.30;99.90;;;15.20;100.00;100854.97;5074576;28;19931;-56
2021/08/22 05:49:12;;;;;;;;;;;15.40;99.90;;;15.06;100.00;100846.16;5075319;28;19928;-56
2021/08/22 05:51:43;;;;;;;;;;;15.30;99.90;;;14.99;100.00;100856.72;5075316;28;20291;-57
2021/08/22 05:54:12;;;;;;;;;;;15.20;99.90;;;14.95;100.00;100850.31;5074828;28;20359;-56
2021/08/22 05:56:40;;;;;;;;;;;15.20;99.90;;;14.94;100.00;100862.31;5074433;28;19929;-56
2021/08/22 05:59:07;;;;;;;;;;;15.20;99.90;;;15.01;100.00;100862.66;5074773;28;19925;-56
2021/08/22 06:01:36;;;;;;;;;;;15.20;99.90;;;15.15;100.00;100860.59;5075253;28;19924;-56
2021/08/22 06:04:03;;;;;;;;;;;15.30;99.90;;;15.29;100.00;100863.94;5074849;28;20371;-56
2021/08/22 06:06:31;;;;;;;;;;;15.40;99.90;;;15.40;100.00;100869.09;5074592;28;19936;-56
2021/08/22 06:08:59;;;;;;;;;;;15.50;99.90;;;15.47;100.00;100880.31;5077252;28;19935;-56
2021/08/22 06:11:28;;;;;;;;;;;15.60;99.90;;;15.39;100.00;100886.56;5074944;28;20335;-55
2021/08/22 06:13:56;;;;;;;;;;;15.60;99.90;;;15.41;100.00;100892.50;5074760;28;19932;-56
2021/08/22 06:16:24;;;;;;;;;;;15.60;99.90;;;15.44;100.00;100889.13;5074209;28;19929;-56
2021/08/22 06:18:51;;;;;;;;;;;15.70;99.90;;;15.56;100.00;100892.84;5074144;28;19924;-56
2021/08/22 06:21:19;;;;;;;;;;;15.70;99.90;;;16.21;100.00;100892.59;5074931;28;20050;-56
2021/08/22 06:23:47;;;;;;;;;;;16.20;99.90;;;16.97;100.00;100878.94;5074506;28;19950;-56
2021/08/22 06:26:15;;;;;;;;;;;16.80;99.90;;;17.64;100.00;100883.44;5073927;28;20411;-57
2021/08/22 06:28:44;;;;;;;;;;;17.50;99.90;;;18.23;100.00;100878.53;5073816;28;19935;-56
2021/08/22 06:31:12;;;;;;;;;;;18.10;99.90;;;18.81;100.00;100861.72;5074679;28;20351;-56
2021/08/22 06:33:39;;;;;;;;;;;18.70;99.90;;;19.51;100.00;100857.59;5074566;28;19932;-56
2021/08/22 06:36:08;;;;;;;;;;;19.40;99.90;;;20.30;100.00;100853.06;5073884;28;19928;-55
2021/08/22 06:38:35;;;;;;;;;;;20.10;99.90;;;20.81;100.00;100853.91;5073560;28;19924;-57
2021/08/22 06:41:03;;;;;;;;;;;20.70;99.90;;;21.15;100.00;100855.09;5074904;28;20061;-56
2021/08/22 06:43:31;;;;;;;;;;;21.20;99.90;;;21.36;100.00;100857.50;5074300;28;19947;-56
2021/08/22 06:46:00;;;;;;;;;;;21.70;99.90;;;21.64;100.00;100847.84;5073799;28;20062;-56
2021/08/22 06:48:28;;;;;;;;;;;22.40;99.90;;;21.85;100.00;100854.94;5073159;28;19924;-57
2021/08/22 06:50:56;;;;;;;;;;;22.70;99.90;;;22.03;100.00;100858.88;5074353;28;20304;-58
2021/08/22 06:53:25;;;;;;;;;;;;;;;22.22;100.00;100836.78;5074199;28;20299;-57
2021/08/22 06:55:52;;;;;;;;;;;23.20;99.90;;;22.25;100.00;100831.31;5073774;28;19924;-57
2021/08/22 06:58:21;;;;;;;;;;;23.40;99.90;;;22.41;100.00;100839.44;5073081;28;19928;-56
2021/08/22 07:00:49;;;;;;;;;;;23.60;99.90;;;22.58;100.00;100841.72;5073886;28;19928;-56
2021/08/22 07:03:18;;;;;;;;;;;24.10;99.90;;;23.01;100.00;100842.38;5073648;28;19931;-56
2021/08/22 07:05:46;;;;;;;;;;;24.20;99.90;;;23.43;100.00;100839.41;5073542;28;19951;-56
2021/08/22 07:08:14;;;;;;;;;;;24.70;99.90;;;23.29;100.00;100845.50;5073003;28;19932;-56
2021/08/22 07:10:41;;;;;;;;;;;24.60;99.90;;;22.63;100.00;100849.66;5073720;28;20296;-56
2021/08/22 07:13:10;;;;;;;;;;;24.10;99.90;;;22.30;100.00;100844.78;5073885;28;19925;-57
2021/08/22 07:15:37;;;;;;;;;;;23.80;99.90;;;22.13;100.00;100856.28;5072866;28;20505;-57
2021/08/22 07:18:05;;;;;;;;;;;23.40;99.90;;;22.19;100.00;100860.31;5072678;28;19925;-57
2021/08/22 07:20:34;;;;;;;;;;;23.10;99.90;;;21.89;100.00;100864.09;5073085;28;19924;-56
2021/08/22 07:23:02;;;;;;;;;;;22.70;99.90;;;21.60;100.00;100870.97;5073480;28;20465;-56
2021/08/22 07:25:30;;;;;;;;;;;22.40;99.90;;;21.57;100.00;100877.22;5073011;28;19924;-56
2021/08/22 07:27:58;;;;;;;;;;;22.20;99.90;;;21.77;100.00;100879.59;5072329;28;19928;-56
2021/08/22 07:30:26;;;;;;;;;;;22.20;99.90;;;22.01;100.00;100889.50;5073237;28;19928;-56
2021/08/22 07:32:55;;;;;;;;;;;22.40;99.90;;;22.12;100.00;100889.72;5075177;28;19924;-56
2021/08/22 07:35:24;;;;;;;;;;;;;;;22.22;100.00;100880.84;5082021;28;19924;-56
2021/08/22 07:37:53;;;;;;;;;;;22.50;99.90;;;22.30;100.00;100886.13;5072099;28;19970;-56
2021/08/22 07:40:21;;;;;;;;;;;22.60;99.90;;;22.38;100.00;100888.97;5073020;28;20410;-57
2021/08/22 07:42:49;;;;;;;;;;;22.60;99.90;;;22.50;100.00;100892.34;5072649;28;19932;-57
2021/08/22 07:45:17;;;;;;;;;;;22.70;99.90;;;22.58;100.00;100885.00;5072715;28;20303;-57
2021/08/22 07:47:45;;;;;;;;;;;22.70;99.90;;;22.61;100.00;100893.34;5071891;28;19932;-57
2021/08/22 07:50:13;;;;;;;;;;;22.70;99.90;;;22.69;100.00;100894.25;5072987;28;19980;-56
2021/08/22 07:52:40;;;;;;;;;;;22.80;99.90;;;22.88;100.00;100898.91;5073013;28;19929;-57
2021/08/22 07:55:11;;;;;;;;;;;22.90;99.90;;;23.12;100.00;100904.00;5072593;28;19978;-56
2021/08/22 07:57:39;;;;;;;;;;;23.20;99.90;;;23.22;100.00;100900.59;5071976;28;19928;-56
2021/08/22 08:00:07;;;;;;;;;;;23.40;99.90;;;23.36;100.00;100906.28;5072946;28;19925;-56
2021/08/22 08:02:35;;;;;;;;;;;23.50;99.90;;;23.49;100.00;100901.38;5073096;28;19932;-56
2021/08/22 08:05:03;;;;;;;;;;;23.50;99.90;;;23.56;100.00;100895.97;5072559;28;20395;-56
2021/08/22 08:07:31;;;;;;;;;;;;;;;23.56;100.00;100899.47;5071456;28;19924;-56
2021/08/22 08:09:58;;;;;;;;;;;23.60;99.90;;;23.66;100.00;100909.88;5072373;28;19955;-56
2021/08/22 08:12:28;;;;;;;;;;;23.70;99.90;;;23.71;100.00;100904.00;5072807;28;19928;-56
2021/08/22 08:14:57;;;;;;;;;;;24.00;99.90;;;23.91;100.00;100904.66;5071778;28;20272;-57
2021/08/22 08:17:25;;;;;;;;;;;24.20;99.90;;;24.12;100.00;100902.16;5071600;28;19932;-56
2021/08/22 08:19:53;;;;;;;;;;;24.30;99.90;;;24.24;100.00;100904.63;5072281;28;19924;-56
2021/08/22 08:22:20;;;;;;;;;;;24.50;99.90;;;24.24;100.00;100906.59;5072632;28;19935;-56
2021/08/22 08:24:48;;;;;;;;;;;24.50;99.90;;;24.23;100.00;100905.78;5072479;28;20725;-56
2021/08/22 08:27:16;;;;;;;;;;;24.50;99.90;;;24.34;100.00;100903.16;5071306;28;19943;-56
2021/08/22 08:29:45;;;;;;;;;;;24.50;99.90;;;24.52;100.00;100897.78;5072376;28;19928;-56
2021/08/22 08:32:13;;;;;;;;;;;24.70;99.90;;;24.68;100.00;100895.56;5072836;28;19924;-57
2021/08/22 08:34:41;;;;;;;;;;;24.80;99.90;;;24.67;100.00;100883.69;5072469;28;19925;-56
2021/08/22 08:37:08;;;;;;;;;;;24.80;99.90;;;24.70;100.00;100879.38;5071269;28;19924;-56
2021/08/22 08:39:36;;;;;;;;;;;24.80;99.90;;;24.72;100.00;100891.63;5072257;28;19925;-56
2021/08/22 08:42:18;;;;;;;;;;;24.90;99.90;;;24.77;100.00;100880.22;5072696;28;19924;-57
2021/08/22 08:44:48;;;;;;;;;;;;;;;24.76;100.00;100886.91;5072506;28;19925;-57
2021/08/22 08:47:16;;;;;;;;;;;25.00;99.90;;;24.83;100.00;100884.25;5071093;28;19928;-57
2021/08/22 08:49:48;;;;;;;;;;;25.00;99.90;;;24.83;100.00;100884.25;5071966;28;20393;-56
2021/08/22 08:52:20;;;;;;;;;;;25.00;99.90;;;24.90;100.00;100877.94;5072623;28;19971;-56
2021/08/22 08:54:47;;;;;;;;;;;25.10;99.90;;;25.00;98.82;100875.25;5072425;28;19924;-56
2021/08/22 08:57:16;;;;;;;;;;;25.20;99.90;;;25.06;96.86;100877.66;5075410;28;19925;-56
2021/08/22 08:59:44;;;;;;;;;;;25.30;99.90;;;25.16;97.08;100877.72;5075976;28;20020;-56
2021/08/22 09:02:13;;;;;;;;;;;25.40;99.90;;;25.24;94.16;100879.34;5076517;28;19925;-56
2021/08/22 09:04:43;;;;;;;;;;;25.40;99.90;;;25.25;96.98;100877.38;5076185;28;20379;-56
2021/08/22 09:07:47;;;;;;;;;;;25.50;99.90;;;25.28;100.00;100880.16;5074823;28;19924;-56
2021/08/22 09:10:48;;;;;;;;;;;25.60;99.90;;;25.13;100.00;100888.78;5076022;28;20356;-56
2021/08/22 09:13:52;;;;;;;;;;;25.50;99.90;;;24.97;100.00;100891.84;5075940;28;19931;-56
2021/08/22 09:17:02;;;;;;;;;;;25.40;99.90;;;24.77;100.00;100885.75;5075495;28;19932;-56
2021/08/22 09:20:05;;;;;;;;;;;25.30;99.90;;;24.57;100.00;100889.91;5075620;28;19924;-56
2021/08/22 09:22:56;;;;;;;;;;;;;;;24.49;100.00;100891.06;5075990;28;19931;-56
2021/08/22 09:26:02;;;;;;;;;;;24.80;99.90;;;24.27;100.00;100895.59;5075245;28;20311;-56
2021/08/22 09:29:15;;;;;;;;;;;24.70;99.90;;;24.12;100.00;100893.84;5070747;28;19960;-56
2021/08/22 09:32:18;;;;;;;;;;;24.60;99.90;;;23.88;100.00;100897.13;5075836;28;20363;-56
2021/08/22 09:35:36;;;;;;;;;;;24.40;99.90;;;23.79;100.00;100900.19;5074039;28;20387;-56
2021/08/22 09:38:40;;;;;;;;;;;24.20;99.90;;;23.69;100.00;100891.75;5004441;28;19929;-56
2021/08/22 09:41:50;;;;;;;;;;;24.10;99.90;;;23.54;100.00;100887.25;5075558;28;20303;-56
2021/08/22 09:45:03;;;;;;;;;;;23.90;99.90;;;23.57;100.00;100897.53;5083445;28;19924;-56
2021/08/22 09:48:10;;;;;;;;;;;23.90;99.90;;;23.54;100.00;100882.50;5094294;28;19931;-58
2021/08/22 09:51:34;;;;;;;;;;;23.90;99.90;;;23.52;100.00;100889.59;5084676;28;20375;-58
2021/08/22 09:54:47;;;;;;;;;;;23.90;99.90;;;23.51;100.00;100891.53;5054401;28;19933;-58
2021/08/22 09:58:01;;;;;;;;;;;23.90;99.90;;;23.66;100.00;100889.75;5068157;28;19931;-59
2021/08/22 10:00:52;;;;;;;;;;;;;;;23.73;100.00;100885.13;5075035;28;19932;-58
2021/08/22 10:03:53;;;;;;;;;;;24.10;99.90;;;23.70;100.00;100894.16;5075279;28;19951;-58
2021/08/22 10:06:40;;;;;;;;;;;24.10;99.90;;;23.73;100.00;100882.38;5073900;28;19939;-58
2021/08/22 10:09:08;;;;;;;;;;;24.00;99.90;;;23.68;100.00;100881.91;5074158;28;19925;-58
2021/08/22 10:11:39;;;;;;;;;;;24.00;99.90;;;23.80;100.00;100887.94;5074975;28;19933;-57
2021/08/22 10:14:10;;;;;;;;;;;24.10;99.90;;;23.95;100.00;100886.16;5074654;28;19999;-58
2021/08/22 10:16:38;;;;;;;;;;;24.30;99.90;;;24.04;100.00;100885.84;5074325;28;19924;-57
2021/08/22 10:19:06;;;;;;;;;;;24.40;99.90;;;23.94;100.00;100879.03;5073913;28;20062;-57
2021/08/22 10:21:34;;;;;;;;;;;24.30;99.90;;;23.86;100.00;100882.91;5074808;28;19925;-58
2021/08/22 10:24:06;;;;;;;;;;;24.20;99.90;;;23.86;100.00;100877.38;5074412;28;19928;-58
2021/08/22 10:26:57;;;;;;;;;;;24.20;99.90;;;23.87;100.00;100877.00;5074153;28;19924;-57
2021/08/22 10:29:29;;;;;;;;;;;24.20;99.90;;;23.85;100.00;100876.59;5074148;28;20349;-58
2021/08/22 10:32:08;;;;;;;;;;;24.20;99.90;;;23.84;100.00;100876.94;5074490;28;19924;-58
2021/08/22 10:34:36;;;;;;;;;;;24.20;99.90;;;23.96;100.00;100876.69;5074482;28;19995;-57
2021/08/22 10:37:27;;;;;;;;;;;24.30;99.90;;;24.07;100.00;100869.31;5073406;28;19924;-57
2021/08/22 10:39:55;;;;;;;;;;;24.40;99.90;;;24.00;100.00;100876.72;5074225;28;19970;-57
2021/08/22 10:42:26;;;;;;;;;;;24.40;99.90;;;23.91;100.00;100871.50;5074309;28;19931;-58
2021/08/22 10:44:55;;;;;;;;;;;24.30;99.90;;;23.88;100.00;100886.06;5074117;28;20380;-58
2021/08/22 10:47:43;;;;;;;;;;;24.20;99.90;;;24.01;100.00;100873.59;5073159;28;19975;-58
2021/08/22 10:50:13;;;;;;;;;;;24.30;99.90;;;24.20;100.00;100870.63;5073855;28;19925;-57
2021/08/22 10:52:41;;;;;;;;;;;24.50;99.90;;;24.37;99.07;100870.03;5073901;28;20019;-58
2021/08/22 10:55:29;;;;;;;;;;;24.70;99.90;;;24.64;96.87;100862.34;5073918;28;19931;-58
2021/08/22 10:57:58;;;;;;;;;;;24.90;99.90;;;24.57;96.37;100861.47;5073116;28;19928;-57
2021/08/22 11:00:27;;;;;;;;;;;24.90;99.90;;;24.50;96.42;100864.97;5073608;28;19928;-58
2021/08/22 11:02:56;;;;;;;;;;;24.90;99.90;;;24.48;96.38;100868.13;5073919;28;19935;-57
2021/08/22 11:05:25;;;;;;;;;;;24.80;99.90;;;24.46;95.53;100864.16;5073541;28;19932;-58
2021/08/22 11:07:55;;;;;;;;;;;24.80;99.90;;;24.51;97.04;100852.75;5072526;28;20019;-57
2021/08/22 11:10:27;;;;;;;;;;;24.80;99.90;;;24.81;94.30;100856.16;5073526;28;19959;-58
2021/08/22 11:12:55;;;;;;;;;;;25.10;99.90;;;24.83;92.71;100853.03;5073507;28;19925;-57
2021/08/22 11:15:26;;;;;;;;;;;25.10;99.90;;;24.76;92.23;100850.97;5073397;28;19929;-58
2021/08/22 11:17:54;;;;;;;;;;;25.10;99.90;;;24.74;92.35;100847.00;5072052;28;19924;-57
2021/08/22 11:20:27;;;;;;;;;;;25.10;99.90;;;24.71;92.41;100851.34;5073177;28;20307;-58
2021/08/22 11:23:05;;;;;;;;;;;25.00;99.90;;;24.63;93.00;100851.66;5073407;28;19998;-58
2021/08/22 11:25:33;;;;;;;;;;;;;;;24.65;91.84;100849.31;5072986;28;19952;-57
2021/08/22 11:28:08;;;;;;;;;;;25.00;99.90;;;24.61;91.64;100856.78;5072349;28;19928;-58
2021/08/22 11:30:38;;;;;;;;;;;25.00;99.90;;;24.58;91.56;100852.81;5073198;28;19928;-57
2021/08/22 11:33:06;;;;;;;;;;;24.90;99.90;;;24.68;90.99;100852.09;5073809;28;20002;-57
2021/08/22 11:35:37;;;;;;;;;;;25.00;99.90;;;24.59;91.39;100854.41;5072972;28;19924;-58